Portada
METAR-TAF:

METAR-TAF

Aeroports :

Wittering, Anglaterra

latitud: 52-37N, longitud: 000-28W, altitud: 84 m

Observació

L'informe es va fer fa 1 hora i 4 minuts, a les 10:50 UTC
Vent 7 kt del Sud/Sud-Oest
Temperatura 6°C
Humitat 87%
Pressió 1018 hPa
Visibilitat 10 km o més

METAR: EGXT 251050Z AUTO 21007KT 9999 OVC013/// 06/04 Q1018

Hora: 11:54 (11:54 UTC)

Pronòstic

L'informe es va fer fa 22 hores i 11 minuts, a les 13:43 UTC
Pronòstic vàlid del 24 a les 15 UTC al 24 a les 18 UTC
Vent 6 kt del Oest/Sud-Oest
Visibilitat 10 km o més
Cel ennuvolat a una alçada de 2200 ft
Evolucionant progressivament
l' 24 a les 15 UTC al 24 a les 18 UTC
Visibilitat: 6000 m
boirina
Probabilitat 30% :
Temporalment
l' 24 a les 15 UTC al 24 a les 17 UTC
Núvols disperses a una alçada de 900 ft

TAF: EGXT 241343Z 2415/2418 25006KT 9999 BKN022 BECMG 2415/2418 6000 BR PROB30 TEMPO 2415/2417 SCT009

Observacions i pronòstics meteorològics de més de 4000 aeroports (METAR i TAF).

Les estacions disponibles són els punts grocs i vermells al mapa.

Posi el ratolí al punt desitjat per veure el nom de l'estació.

Feu clic per veure les observacions i els pronòstics meteorològics.

Per canviar el mapa: feu clic els botons verds amb una creu de color negre per apropar; al botó verd amb un guió per allunyar la imatge; o en les fletxes verdes per a mapes adjacents.


METAR-TAF: